sensor_id;sensor_type;location;lat;lon;timestamp;P1;durP1;ratioP1;P2;durP2;ratioP2
72864;SDS011;61000;48.120;11.548;2023-03-24T00:01:53;4.70;;;2.90;;
72864;SDS011;61000;48.120;11.548;2023-03-24T00:04:20;3.95;;;3.05;;
72864;SDS011;61000;48.120;11.548;2023-03-24T00:06:49;2.60;;;2.40;;
72864;SDS011;61000;48.120;11.548;2023-03-24T00:09:16;6.90;;;3.20;;
72864;SDS011;61000;48.120;11.548;2023-03-24T00:11:43;4.78;;;2.97;;
72864;SDS011;61000;48.120;11.548;2023-03-24T00:14:12;3.75;;;3.38;;
72864;SDS011;61000;48.120;11.548;2023-03-24T00:16:39;3.13;;;2.70;;
72864;SDS011;61000;48.120;11.548;2023-03-24T00:19:08;5.90;;;3.50;;
72864;SDS011;61000;48.120;11.548;2023-03-24T00:21:35;3.55;;;3.22;;
72864;SDS011;61000;48.120;11.548;2023-03-24T00:24:03;4.50;;;2.95;;
72864;SDS011;61000;48.120;11.548;2023-03-24T00:26:32;2.67;;;2.45;;
72864;SDS011;61000;48.120;11.548;2023-03-24T00:29:02;4.85;;;3.15;;
72864;SDS011;61000;48.120;11.548;2023-03-24T00:31:31;4.63;;;2.92;;
72864;SDS011;61000;48.120;11.548;2023-03-24T00:33:58;4.60;;;3.10;;
72864;SDS011;61000;48.120;11.548;2023-03-24T00:36:27;4.65;;;3.33;;
72864;SDS011;61000;48.120;11.548;2023-03-24T00:38:54;3.53;;;2.85;;
72864;SDS011;61000;48.120;11.548;2023-03-24T00:41:22;5.60;;;3.40;;
72864;SDS011;61000;48.120;11.548;2023-03-24T00:43:52;2.90;;;2.60;;
72864;SDS011;61000;48.120;11.548;2023-03-24T00:46:21;3.50;;;2.75;;
72864;SDS011;61000;48.120;11.548;2023-03-24T00:48:58;4.95;;;3.35;;
72864;SDS011;61000;48.120;11.548;2023-03-24T00:51:30;4.25;;;3.47;;
72864;SDS011;61000;48.120;11.548;2023-03-24T00:53:59;4.05;;;3.40;;
72864;SDS011;61000;48.120;11.548;2023-03-24T00:56:29;3.30;;;3.00;;
72864;SDS011;61000;48.120;11.548;2023-03-24T00:58:57;3.45;;;3.15;;
72864;SDS011;61000;48.120;11.548;2023-03-24T01:01:26;6.30;;;3.13;;
72864;SDS011;61000;48.120;11.548;2023-03-24T01:03:58;4.72;;;3.03;;
72864;SDS011;61000;48.120;11.548;2023-03-24T01:06:26;6.28;;;3.10;;
72864;SDS011;61000;48.120;11.548;2023-03-24T01:08:54;3.50;;;3.20;;
72864;SDS011;61000;48.120;11.548;2023-03-24T01:11:21;4.88;;;3.22;;
72864;SDS011;61000;48.120;11.548;2023-03-24T01:13:51;5.28;;;3.20;;
72864;SDS011;61000;48.120;11.548;2023-03-24T01:16:18;3.90;;;3.58;;
72864;SDS011;61000;48.120;11.548;2023-03-24T01:18:49;5.43;;;4.03;;
72864;SDS011;61000;48.120;11.548;2023-03-24T01:21:18;3.70;;;3.05;;
72864;SDS011;61000;48.120;11.548;2023-03-24T01:23:45;5.68;;;3.22;;
72864;SDS011;61000;48.120;11.548;2023-03-24T01:26:12;5.22;;;3.05;;
72864;SDS011;61000;48.120;11.548;2023-03-24T01:28:39;4.13;;;3.30;;
72864;SDS011;61000;48.120;11.548;2023-03-24T01:31:07;4.68;;;3.38;;
72864;SDS011;61000;48.120;11.548;2023-03-24T01:33:36;5.35;;;3.13;;
72864;SDS011;61000;48.120;11.548;2023-03-24T01:36:03;5.30;;;3.35;;
72864;SDS011;61000;48.120;11.548;2023-03-24T01:38:33;8.93;;;3.97;;
72864;SDS011;61000;48.120;11.548;2023-03-24T01:41:00;5.05;;;3.63;;
72864;SDS011;61000;48.120;11.548;2023-03-24T01:43:30;3.40;;;3.10;;
72864;SDS011;61000;48.120;11.548;2023-03-24T01:46:15;4.35;;;3.65;;
72864;SDS011;61000;48.120;11.548;2023-03-24T01:48:46;3.63;;;3.08;;
72864;SDS011;61000;48.120;11.548;2023-03-24T01:51:17;3.67;;;3.25;;
72864;SDS011;61000;48.120;11.548;2023-03-24T01:53:50;3.38;;;3.05;;
72864;SDS011;61000;48.120;11.548;2023-03-24T01:56:21;3.42;;;2.80;;
72864;SDS011;61000;48.120;11.548;2023-03-24T01:58:49;3.58;;;3.22;;
72864;SDS011;61000;48.120;11.548;2023-03-24T02:01:31;4.35;;;3.63;;
72864;SDS011;61000;48.120;11.548;2023-03-24T02:04:09;4.03;;;3.28;;
72864;SDS011;61000;48.120;11.548;2023-03-24T02:06:36;3.75;;;2.88;;
72864;SDS011;61000;48.120;11.548;2023-03-24T02:09:10;4.28;;;2.95;;
72864;SDS011;61000;48.120;11.548;2023-03-24T02:11:39;3.58;;;3.13;;
72864;SDS011;61000;48.120;11.548;2023-03-24T02:14:07;3.67;;;3.13;;
72864;SDS011;61000;48.120;11.548;2023-03-24T02:19:59;6.78;;;3.65;;
72864;SDS011;61000;48.120;11.548;2023-03-24T02:22:55;5.05;;;2.97;;
72864;SDS011;61000;48.120;11.548;2023-03-24T02:26:08;7.95;;;3.35;;
72864;SDS011;61000;48.120;11.548;2023-03-24T02:29:01;4.43;;;3.20;;
72864;SDS011;61000;48.120;11.548;2023-03-24T02:31:47;4.22;;;3.17;;
72864;SDS011;61000;48.120;11.548;2023-03-24T02:34:42;5.88;;;3.30;;
72864;SDS011;61000;48.120;11.548;2023-03-24T02:37:35;4.50;;;3.17;;
72864;SDS011;61000;48.120;11.548;2023-03-24T02:40:28;3.22;;;2.90;;
72864;SDS011;61000;48.120;11.548;2023-03-24T02:43:04;4.00;;;3.20;;
72864;SDS011;61000;48.120;11.548;2023-03-24T02:45:47;4.40;;;3.30;;
72864;SDS011;61000;48.120;11.548;2023-03-24T02:48:26;7.45;;;3.20;;
72864;SDS011;61000;48.120;11.548;2023-03-24T02:51:03;4.18;;;3.30;;
72864;SDS011;61000;48.120;11.548;2023-03-24T02:53:37;3.80;;;3.17;;
72864;SDS011;61000;48.120;11.548;2023-03-24T02:56:26;5.70;;;3.17;;
72864;SDS011;61000;48.120;11.548;2023-03-24T02:59:09;4.45;;;3.00;;
72864;SDS011;61000;48.120;11.548;2023-03-24T03:01:43;5.88;;;3.50;;
72864;SDS011;61000;48.120;11.548;2023-03-24T03:04:44;3.22;;;2.92;;
72864;SDS011;61000;48.120;11.548;2023-03-24T03:07:17;5.40;;;3.10;;
72864;SDS011;61000;48.120;11.548;2023-03-24T03:09:50;3.95;;;2.90;;
72864;SDS011;61000;48.120;11.548;2023-03-24T03:12:23;3.85;;;2.92;;
72864;SDS011;61000;48.120;11.548;2023-03-24T03:14:53;3.63;;;2.95;;
72864;SDS011;61000;48.120;11.548;2023-03-24T03:17:24;5.18;;;3.13;;
72864;SDS011;61000;48.120;11.548;2023-03-24T03:19:55;3.65;;;2.78;;
72864;SDS011;61000;48.120;11.548;2023-03-24T03:22:35;3.55;;;3.25;;
72864;SDS011;61000;48.120;11.548;2023-03-24T03:25:08;5.28;;;3.10;;
72864;SDS011;61000;48.120;11.548;2023-03-24T03:27:37;3.20;;;2.90;;
72864;SDS011;61000;48.120;11.548;2023-03-24T03:30:10;3.55;;;3.25;;
72864;SDS011;61000;48.120;11.548;2023-03-24T03:32:43;4.53;;;2.90;;
72864;SDS011;61000;48.120;11.548;2023-03-24T03:35:19;6.28;;;3.75;;
72864;SDS011;61000;48.120;11.548;2023-03-24T03:37:51;5.35;;;4.00;;
72864;SDS011;61000;48.120;11.548;2023-03-24T03:40:26;4.60;;;3.38;;
72864;SDS011;61000;48.120;11.548;2023-03-24T03:43:07;4.53;;;3.78;;
72864;SDS011;61000;48.120;11.548;2023-03-24T03:45:34;5.20;;;3.40;;
72864;SDS011;61000;48.120;11.548;2023-03-24T03:48:02;3.95;;;3.55;;
72864;SDS011;61000;48.120;11.548;2023-03-24T03:50:30;5.03;;;3.13;;
72864;SDS011;61000;48.120;11.548;2023-03-24T03:53:02;4.18;;;3.50;;
72864;SDS011;61000;48.120;11.548;2023-03-24T03:55:30;4.57;;;3.53;;
72864;SDS011;61000;48.120;11.548;2023-03-24T03:57:58;3.85;;;3.45;;
72864;SDS011;61000;48.120;11.548;2023-03-24T04:00:40;4.70;;;3.20;;
72864;SDS011;61000;48.120;11.548;2023-03-24T04:03:31;6.28;;;3.92;;
72864;SDS011;61000;48.120;11.548;2023-03-24T04:06:20;6.20;;;4.07;;
72864;SDS011;61000;48.120;11.548;2023-03-24T04:08:55;6.30;;;4.22;;
72864;SDS011;61000;48.120;11.548;2023-03-24T04:11:34;4.63;;;4.05;;
72864;SDS011;61000;48.120;11.548;2023-03-24T04:18:27;5.57;;;4.32;;
72864;SDS011;61000;48.120;11.548;2023-03-24T04:21:13;6.75;;;3.78;;
72864;SDS011;61000;48.120;11.548;2023-03-24T04:23:54;4.53;;;4.10;;
72864;SDS011;61000;48.120;11.548;2023-03-24T04:26:32;3.88;;;3.58;;
72864;SDS011;61000;48.120;11.548;2023-03-24T04:29:05;10.70;;;4.22;;
72864;SDS011;61000;48.120;11.548;2023-03-24T04:31:42;4.50;;;3.80;;
72864;SDS011;61000;48.120;11.548;2023-03-24T04:34:17;5.00;;;3.80;;
72864;SDS011;61000;48.120;11.548;2023-03-24T04:36:50;4.63;;;4.10;;
72864;SDS011;61000;48.120;11.548;2023-03-24T04:39:26;7.18;;;4.68;;
72864;SDS011;61000;48.120;11.548;2023-03-24T04:45:53;6.80;;;3.88;;
72864;SDS011;61000;48.120;11.548;2023-03-24T04:48:50;5.75;;;4.20;;
72864;SDS011;61000;48.120;11.548;2023-03-24T04:51:29;4.15;;;3.75;;
72864;SDS011;61000;48.120;11.548;2023-03-24T04:54:09;5.70;;;3.53;;
72864;SDS011;61000;48.120;11.548;2023-03-24T04:56:42;4.60;;;3.85;;
72864;SDS011;61000;48.120;11.548;2023-03-24T04:59:22;4.60;;;4.10;;
72864;SDS011;61000;48.120;11.548;2023-03-24T05:01:50;4.85;;;3.97;;
72864;SDS011;61000;48.120;11.548;2023-03-24T05:04:26;6.50;;;3.95;;
72864;SDS011;61000;48.120;11.548;2023-03-24T05:07:00;8.98;;;3.90;;
72864;SDS011;61000;48.120;11.548;2023-03-24T05:09:28;4.95;;;4.18;;
72864;SDS011;61000;48.120;11.548;2023-03-24T05:11:57;4.45;;;4.00;;
72864;SDS011;61000;48.120;11.548;2023-03-24T05:14:24;6.82;;;4.43;;
72864;SDS011;61000;48.120;11.548;2023-03-24T05:16:51;8.32;;;4.57;;
72864;SDS011;61000;48.120;11.548;2023-03-24T05:19:20;4.90;;;4.22;;
72864;SDS011;61000;48.120;11.548;2023-03-24T05:21:48;5.93;;;4.35;;
72864;SDS011;61000;48.120;11.548;2023-03-24T05:24:17;7.47;;;4.40;;
72864;SDS011;61000;48.120;11.548;2023-03-24T05:26:43;5.38;;;4.38;;
72864;SDS011;61000;48.120;11.548;2023-03-24T05:29:15;7.80;;;4.97;;
72864;SDS011;61000;48.120;11.548;2023-03-24T05:31:43;6.55;;;4.40;;
72864;SDS011;61000;48.120;11.548;2023-03-24T05:34:15;9.05;;;4.65;;
72864;SDS011;61000;48.120;11.548;2023-03-24T05:37:11;4.07;;;3.78;;
72864;SDS011;61000;48.120;11.548;2023-03-24T05:39:45;7.35;;;4.10;;
72864;SDS011;61000;48.120;11.548;2023-03-24T05:42:29;6.72;;;4.50;;
72864;SDS011;61000;48.120;11.548;2023-03-24T05:44:58;6.03;;;4.18;;
72864;SDS011;61000;48.120;11.548;2023-03-24T05:47:26;6.22;;;3.97;;
72864;SDS011;61000;48.120;11.548;2023-03-24T05:49:53;6.65;;;4.05;;
72864;SDS011;61000;48.120;11.548;2023-03-24T05:52:20;6.35;;;4.93;;
72864;SDS011;61000;48.120;11.548;2023-03-24T05:54:50;5.95;;;4.18;;
72864;SDS011;61000;48.120;11.548;2023-03-24T05:57:20;7.05;;;4.10;;
72864;SDS011;61000;48.120;11.548;2023-03-24T06:00:16;4.47;;;4.07;;
72864;SDS011;61000;48.120;11.548;2023-03-24T06:02:59;5.68;;;4.68;;
72864;SDS011;61000;48.120;11.548;2023-03-24T06:05:33;7.20;;;4.28;;
72864;SDS011;61000;48.120;11.548;2023-03-24T06:08:00;8.00;;;5.38;;
72864;SDS011;61000;48.120;11.548;2023-03-24T06:10:32;6.00;;;5.03;;
72864;SDS011;61000;48.120;11.548;2023-03-24T06:13:01;6.38;;;4.72;;
72864;SDS011;61000;48.120;11.548;2023-03-24T06:15:29;8.60;;;4.82;;
72864;SDS011;61000;48.120;11.548;2023-03-24T06:18:10;6.88;;;5.70;;
72864;SDS011;61000;48.120;11.548;2023-03-24T06:20:39;6.70;;;4.72;;
72864;SDS011;61000;48.120;11.548;2023-03-24T06:23:09;6.10;;;4.68;;
72864;SDS011;61000;48.120;11.548;2023-03-24T06:26:06;6.47;;;5.07;;
72864;SDS011;61000;48.120;11.548;2023-03-24T06:28:41;5.68;;;4.88;;
72864;SDS011;61000;48.120;11.548;2023-03-24T06:31:13;6.65;;;5.53;;
72864;SDS011;61000;48.120;11.548;2023-03-24T06:33:42;7.28;;;4.78;;
72864;SDS011;61000;48.120;11.548;2023-03-24T06:36:10;5.35;;;4.80;;
72864;SDS011;61000;48.120;11.548;2023-03-24T06:38:40;6.15;;;5.03;;
72864;SDS011;61000;48.120;11.548;2023-03-24T06:41:10;8.73;;;5.13;;
72864;SDS011;61000;48.120;11.548;2023-03-24T06:43:37;7.57;;;5.63;;
72864;SDS011;61000;48.120;11.548;2023-03-24T06:46:05;8.13;;;5.38;;
72864;SDS011;61000;48.120;11.548;2023-03-24T06:48:34;6.90;;;5.85;;
72864;SDS011;61000;48.120;11.548;2023-03-24T06:51:05;5.78;;;5.13;;
72864;SDS011;61000;48.120;11.548;2023-03-24T06:53:33;6.47;;;5.47;;
72864;SDS011;61000;48.120;11.548;2023-03-24T06:56:02;6.25;;;5.57;;
72864;SDS011;61000;48.120;11.548;2023-03-24T06:58:38;8.40;;;5.95;;
72864;SDS011;61000;48.120;11.548;2023-03-24T07:01:06;10.90;;;6.20;;
72864;SDS011;61000;48.120;11.548;2023-03-24T07:04:06;6.25;;;5.45;;
72864;SDS011;61000;48.120;11.548;2023-03-24T07:06:33;5.80;;;4.93;;
72864;SDS011;61000;48.120;11.548;2023-03-24T07:09:08;6.65;;;5.15;;
72864;SDS011;61000;48.120;11.548;2023-03-24T07:11:36;7.30;;;5.70;;
72864;SDS011;61000;48.120;11.548;2023-03-24T07:14:04;7.15;;;5.47;;
72864;SDS011;61000;48.120;11.548;2023-03-24T07:16:33;7.80;;;4.82;;
72864;SDS011;61000;48.120;11.548;2023-03-24T07:19:13;5.50;;;5.00;;
72864;SDS011;61000;48.120;11.548;2023-03-24T07:21:44;7.30;;;5.03;;
72864;SDS011;61000;48.120;11.548;2023-03-24T07:24:14;8.27;;;5.05;;
72864;SDS011;61000;48.120;11.548;2023-03-24T07:27:02;5.45;;;4.82;;
72864;SDS011;61000;48.120;11.548;2023-03-24T07:29:34;6.82;;;4.45;;
72864;SDS011;61000;48.120;11.548;2023-03-24T07:32:15;6.93;;;5.20;;
72864;SDS011;61000;48.120;11.548;2023-03-24T07:34:43;9.40;;;6.10;;
72864;SDS011;61000;48.120;11.548;2023-03-24T07:37:10;8.52;;;6.57;;
72864;SDS011;61000;48.120;11.548;2023-03-24T07:39:37;8.35;;;6.50;;
72864;SDS011;61000;48.120;11.548;2023-03-24T07:42:08;16.00;;;6.38;;
72864;SDS011;61000;48.120;11.548;2023-03-24T07:44:49;7.85;;;6.38;;
72864;SDS011;61000;48.120;11.548;2023-03-24T07:47:16;6.72;;;5.60;;
72864;SDS011;61000;48.120;11.548;2023-03-24T07:49:45;10.27;;;5.80;;
72864;SDS011;61000;48.120;11.548;2023-03-24T07:52:12;9.38;;;6.32;;
72864;SDS011;61000;48.120;11.548;2023-03-24T07:54:45;11.70;;;6.82;;
72864;SDS011;61000;48.120;11.548;2023-03-24T07:57:31;9.43;;;6.22;;
72864;SDS011;61000;48.120;11.548;2023-03-24T08:00:03;9.13;;;6.05;;
72864;SDS011;61000;48.120;11.548;2023-03-24T08:02:49;8.70;;;5.50;;
72864;SDS011;61000;48.120;11.548;2023-03-24T08:05:35;6.07;;;5.20;;
72864;SDS011;61000;48.120;11.548;2023-03-24T08:08:23;8.27;;;4.90;;
72864;SDS011;61000;48.120;11.548;2023-03-24T08:10:50;8.82;;;4.07;;
72864;SDS011;61000;48.120;11.548;2023-03-24T08:13:17;4.75;;;4.25;;
72864;SDS011;61000;48.120;11.548;2023-03-24T08:15:46;3.75;;;3.33;;
72864;SDS011;61000;48.120;11.548;2023-03-24T08:18:13;3.92;;;3.40;;
72864;SDS011;61000;48.120;11.548;2023-03-24T08:20:40;4.97;;;4.18;;
72864;SDS011;61000;48.120;11.548;2023-03-24T08:23:08;26.27;;;13.80;;
72864;SDS011;61000;48.120;11.548;2023-03-24T08:25:35;8.82;;;6.20;;
72864;SDS011;61000;48.120;11.548;2023-03-24T08:28:02;6.25;;;4.78;;
72864;SDS011;61000;48.120;11.548;2023-03-24T08:30:30;5.88;;;4.55;;
72864;SDS011;61000;48.120;11.548;2023-03-24T08:33:00;4.07;;;3.63;;
72864;SDS011;61000;48.120;11.548;2023-03-24T08:35:28;4.93;;;3.83;;
72864;SDS011;61000;48.120;11.548;2023-03-24T08:37:56;5.47;;;3.17;;
72864;SDS011;61000;48.120;11.548;2023-03-24T08:40:26;3.72;;;3.08;;
72864;SDS011;61000;48.120;11.548;2023-03-24T08:42:56;3.55;;;3.20;;
72864;SDS011;61000;48.120;11.548;2023-03-24T08:45:25;5.68;;;3.38;;
72864;SDS011;61000;48.120;11.548;2023-03-24T08:47:54;6.03;;;4.03;;
72864;SDS011;61000;48.120;11.548;2023-03-24T08:50:25;3.72;;;3.30;;
72864;SDS011;61000;48.120;11.548;2023-03-24T08:52:54;4.60;;;3.30;;
72864;SDS011;61000;48.120;11.548;2023-03-24T08:55:22;3.38;;;3.08;;
72864;SDS011;61000;48.120;11.548;2023-03-24T08:57:49;4.15;;;3.65;;
72864;SDS011;61000;48.120;11.548;2023-03-24T09:00:17;5.25;;;3.40;;
72864;SDS011;61000;48.120;11.548;2023-03-24T09:02:45;5.50;;;3.90;;
72864;SDS011;61000;48.120;11.548;2023-03-24T09:05:14;5.68;;;3.45;;
72864;SDS011;61000;48.120;11.548;2023-03-24T09:07:44;3.63;;;3.33;;
72864;SDS011;61000;48.120;11.548;2023-03-24T09:10:11;5.25;;;3.20;;
72864;SDS011;61000;48.120;11.548;2023-03-24T09:12:39;4.70;;;3.10;;
72864;SDS011;61000;48.120;11.548;2023-03-24T09:15:08;4.70;;;3.20;;
72864;SDS011;61000;48.120;11.548;2023-03-24T09:17:37;4.70;;;3.50;;
72864;SDS011;61000;48.120;11.548;2023-03-24T09:20:06;3.80;;;3.40;;
72864;SDS011;61000;48.120;11.548;2023-03-24T09:22:37;3.88;;;2.75;;
72864;SDS011;61000;48.120;11.548;2023-03-24T09:25:06;5.10;;;3.42;;
72864;SDS011;61000;48.120;11.548;2023-03-24T09:27:33;5.35;;;3.20;;
72864;SDS011;61000;48.120;11.548;2023-03-24T09:30:01;3.00;;;2.78;;
72864;SDS011;61000;48.120;11.548;2023-03-24T09:32:28;3.28;;;2.95;;
72864;SDS011;61000;48.120;11.548;2023-03-24T09:34:55;2.92;;;2.63;;
72864;SDS011;61000;48.120;11.548;2023-03-24T09:37:22;3.88;;;2.70;;
72864;SDS011;61000;48.120;11.548;2023-03-24T09:39:49;4.80;;;2.92;;
72864;SDS011;61000;48.120;11.548;2023-03-24T09:42:21;3.25;;;2.83;;
72864;SDS011;61000;48.120;11.548;2023-03-24T09:44:51;3.70;;;2.63;;
72864;SDS011;61000;48.120;11.548;2023-03-24T09:47:24;2.88;;;2.58;;
72864;SDS011;61000;48.120;11.548;2023-03-24T09:49:54;4.50;;;2.90;;
72864;SDS011;61000;48.120;11.548;2023-03-24T09:52:26;3.70;;;3.10;;
72864;SDS011;61000;48.120;11.548;2023-03-24T09:54:58;2.70;;;2.50;;
72864;SDS011;61000;48.120;11.548;2023-03-24T09:57:29;3.40;;;3.00;;
72864;SDS011;61000;48.120;11.548;2023-03-24T10:00:04;4.07;;;3.15;;
72864;SDS011;61000;48.120;11.548;2023-03-24T10:02:41;7.65;;;3.95;;
72864;SDS011;61000;48.120;11.548;2023-03-24T10:05:12;10.38;;;5.05;;
72864;SDS011;61000;48.120;11.548;2023-03-24T10:07:42;4.90;;;3.78;;
72864;SDS011;61000;48.120;11.548;2023-03-24T10:10:17;5.07;;;3.53;;
72864;SDS011;61000;48.120;11.548;2023-03-24T10:12:54;8.00;;;4.80;;
72864;SDS011;61000;48.120;11.548;2023-03-24T10:15:31;4.07;;;3.67;;
72864;SDS011;61000;48.120;11.548;2023-03-24T10:18:07;3.85;;;2.95;;
72864;SDS011;61000;48.120;11.548;2023-03-24T10:20:50;3.75;;;3.22;;
72864;SDS011;61000;48.120;11.548;2023-03-24T10:23:22;4.90;;;3.95;;
72864;SDS011;61000;48.120;11.548;2023-03-24T10:25:55;3.65;;;2.95;;
72864;SDS011;61000;48.120;11.548;2023-03-24T10:28:32;3.95;;;3.40;;
72864;SDS011;61000;48.120;11.548;2023-03-24T10:31:07;7.45;;;3.13;;
72864;SDS011;61000;48.120;11.548;2023-03-24T10:33:38;4.43;;;3.17;;
72864;SDS011;61000;48.120;11.548;2023-03-24T10:36:08;3.25;;;2.90;;
72864;SDS011;61000;48.120;11.548;2023-03-24T10:38:38;3.28;;;2.97;;
72864;SDS011;61000;48.120;11.548;2023-03-24T10:41:06;4.65;;;3.40;;
72864;SDS011;61000;48.120;11.548;2023-03-24T10:43:37;4.35;;;3.38;;
72864;SDS011;61000;48.120;11.548;2023-03-24T10:46:04;3.35;;;3.05;;
72864;SDS011;61000;48.120;11.548;2023-03-24T10:48:33;6.65;;;4.15;;
72864;SDS011;61000;48.120;11.548;2023-03-24T10:51:06;4.00;;;3.60;;
72864;SDS011;61000;48.120;11.548;2023-03-24T10:53:38;7.55;;;3.90;;
72864;SDS011;61000;48.120;11.548;2023-03-24T10:56:06;3.35;;;3.05;;
72864;SDS011;61000;48.120;11.548;2023-03-24T10:58:35;3.15;;;2.83;;
72864;SDS011;61000;48.120;11.548;2023-03-24T11:01:07;2.97;;;2.50;;
72864;SDS011;61000;48.120;11.548;2023-03-24T11:03:45;2.75;;;2.55;;
72864;SDS011;61000;48.120;11.548;2023-03-24T11:06:15;3.35;;;2.70;;
72864;SDS011;61000;48.120;11.548;2023-03-24T11:08:44;2.80;;;2.60;;
72864;SDS011;61000;48.120;11.548;2023-03-24T11:11:12;4.05;;;3.75;;
72864;SDS011;61000;48.120;11.548;2023-03-24T11:13:55;3.70;;;3.00;;
72864;SDS011;61000;48.120;11.548;2023-03-24T11:16:27;7.53;;;6.70;;
72864;SDS011;61000;48.120;11.548;2023-03-24T11:18:56;4.55;;;2.90;;
72864;SDS011;61000;48.120;11.548;2023-03-24T11:21:25;8.98;;;5.25;;
72864;SDS011;61000;48.120;11.548;2023-03-24T11:23:53;5.05;;;3.10;;
72864;SDS011;61000;48.120;11.548;2023-03-24T11:26:27;2.50;;;2.30;;
72864;SDS011;61000;48.120;11.548;2023-03-24T11:28:59;2.60;;;2.40;;
72864;SDS011;61000;48.120;11.548;2023-03-24T11:31:29;2.65;;;2.45;;
72864;SDS011;61000;48.120;11.548;2023-03-24T11:33:58;2.78;;;2.47;;
72864;SDS011;61000;48.120;11.548;2023-03-24T11:36:37;2.40;;;2.17;;
72864;SDS011;61000;48.120;11.548;2023-03-24T11:39:16;2.67;;;2.47;;
72864;SDS011;61000;48.120;11.548;2023-03-24T11:41:49;2.47;;;2.28;;
72864;SDS011;61000;48.120;11.548;2023-03-24T11:44:39;2.83;;;2.53;;
72864;SDS011;61000;48.120;11.548;2023-03-24T11:47:10;2.85;;;2.40;;
72864;SDS011;61000;48.120;11.548;2023-03-24T11:49:44;4.28;;;2.30;;
72864;SDS011;61000;48.120;11.548;2023-03-24T11:52:19;2.78;;;2.50;;
72864;SDS011;61000;48.120;11.548;2023-03-24T11:54:48;4.45;;;2.53;;
72864;SDS011;61000;48.120;11.548;2023-03-24T11:57:16;3.75;;;2.40;;
72864;SDS011;61000;48.120;11.548;2023-03-24T11:59:55;2.30;;;2.10;;
72864;SDS011;61000;48.120;11.548;2023-03-24T12:02:32;4.75;;;2.67;;
72864;SDS011;61000;48.120;11.548;2023-03-24T12:05:16;3.40;;;2.50;;
72864;SDS011;61000;48.120;11.548;2023-03-24T12:08:09;3.33;;;2.50;;
72864;SDS011;61000;48.120;11.548;2023-03-24T12:10:50;4.13;;;2.53;;
72864;SDS011;61000;48.120;11.548;2023-03-24T12:13:27;2.45;;;2.25;;
72864;SDS011;61000;48.120;11.548;2023-03-24T12:16:09;3.33;;;2.90;;
72864;SDS011;61000;48.120;11.548;2023-03-24T12:18:53;2.08;;;1.88;;
72864;SDS011;61000;48.120;11.548;2023-03-24T12:21:31;1.95;;;1.75;;
72864;SDS011;61000;48.120;11.548;2023-03-24T12:24:10;2.25;;;1.90;;
72864;SDS011;61000;48.120;11.548;2023-03-24T12:26:47;2.25;;;2.03;;
72864;SDS011;61000;48.120;11.548;2023-03-24T12:29:36;3.03;;;2.00;;
72864;SDS011;61000;48.120;11.548;2023-03-24T12:32:27;3.38;;;2.10;;
72864;SDS011;61000;48.120;11.548;2023-03-24T12:35:19;3.70;;;2.78;;
72864;SDS011;61000;48.120;11.548;2023-03-24T12:38:17;3.53;;;2.95;;
72864;SDS011;61000;48.120;11.548;2023-03-24T12:41:04;2.78;;;2.30;;
72864;SDS011;61000;48.120;11.548;2023-03-24T12:43:46;4.80;;;2.25;;
72864;SDS011;61000;48.120;11.548;2023-03-24T12:46:28;3.22;;;2.30;;
72864;SDS011;61000;48.120;11.548;2023-03-24T12:49:08;3.40;;;2.72;;
72864;SDS011;61000;48.120;11.548;2023-03-24T12:51:53;3.28;;;2.03;;
72864;SDS011;61000;48.120;11.548;2023-03-24T12:54:40;4.38;;;2.28;;
72864;SDS011;61000;48.120;11.548;2023-03-24T12:57:16;2.03;;;1.83;;
72864;SDS011;61000;48.120;11.548;2023-03-24T12:59:45;1.75;;;1.55;;
72864;SDS011;61000;48.120;11.548;2023-03-24T13:02:19;2.60;;;1.73;;
72864;SDS011;61000;48.120;11.548;2023-03-24T13:04:54;2.60;;;2.15;;
72864;SDS011;61000;48.120;11.548;2023-03-24T13:07:28;2.40;;;2.05;;
72864;SDS011;61000;48.120;11.548;2023-03-24T13:09:59;2.28;;;1.98;;
72864;SDS011;61000;48.120;11.548;2023-03-24T13:12:31;4.47;;;3.30;;
72864;SDS011;61000;48.120;11.548;2023-03-24T13:15:02;3.50;;;2.47;;
72864;SDS011;61000;48.120;11.548;2023-03-24T13:17:33;9.93;;;6.22;;
72864;SDS011;61000;48.120;11.548;2023-03-24T13:20:06;6.00;;;5.40;;
72864;SDS011;61000;48.120;11.548;2023-03-24T13:22:39;4.75;;;3.63;;
72864;SDS011;61000;48.120;11.548;2023-03-24T13:25:08;2.78;;;2.55;;
72864;SDS011;61000;48.120;11.548;2023-03-24T13:27:47;5.28;;;3.70;;
72864;SDS011;61000;48.120;11.548;2023-03-24T13:30:25;2.22;;;2.03;;
72864;SDS011;61000;48.120;11.548;2023-03-24T13:32:58;3.83;;;2.72;;
72864;SDS011;61000;48.120;11.548;2023-03-24T13:38:41;2.30;;;1.83;;
72864;SDS011;61000;48.120;11.548;2023-03-24T13:41:16;2.03;;;1.85;;
72864;SDS011;61000;48.120;11.548;2023-03-24T13:44:05;2.35;;;1.40;;
72864;SDS011;61000;48.120;11.548;2023-03-24T13:47:02;1.27;;;1.20;;
72864;SDS011;61000;48.120;11.548;2023-03-24T13:49:33;1.30;;;1.20;;
72864;SDS011;61000;48.120;11.548;2023-03-24T13:52:03;1.23;;;1.13;;
72864;SDS011;61000;48.120;11.548;2023-03-24T13:54:34;1.25;;;1.17;;
72864;SDS011;61000;48.120;11.548;2023-03-24T13:57:03;1.50;;;1.40;;
72864;SDS011;61000;48.120;11.548;2023-03-24T13:59:37;1.27;;;1.20;;
72864;SDS011;61000;48.120;11.548;2023-03-24T14:02:16;1.40;;;1.30;;
72864;SDS011;61000;48.120;11.548;2023-03-24T14:04:46;1.30;;;1.20;;
72864;SDS011;61000;48.120;11.548;2023-03-24T14:10:35;1.73;;;1.48;;
72864;SDS011;61000;48.120;11.548;2023-03-24T14:13:24;1.50;;;1.40;;
72864;SDS011;61000;48.120;11.548;2023-03-24T14:19:17;2.67;;;1.95;;
72864;SDS011;61000;48.120;11.548;2023-03-24T14:21:51;2.45;;;2.20;;
72864;SDS011;61000;48.120;11.548;2023-03-24T14:24:25;2.30;;;2.10;;
72864;SDS011;61000;48.120;11.548;2023-03-24T14:26:54;3.88;;;1.88;;
72864;SDS011;61000;48.120;11.548;2023-03-24T14:32:13;2.55;;;1.40;;
72864;SDS011;61000;48.120;11.548;2023-03-24T14:34:53;1.52;;;1.42;;
72864;SDS011;61000;48.120;11.548;2023-03-24T14:37:22;3.55;;;2.13;;
72864;SDS011;61000;48.120;11.548;2023-03-24T14:39:52;2.38;;;2.10;;
72864;SDS011;61000;48.120;11.548;2023-03-24T14:42:26;2.42;;;2.20;;
72864;SDS011;61000;48.120;11.548;2023-03-24T14:48:17;1.60;;;1.50;;
72864;SDS011;61000;48.120;11.548;2023-03-24T14:50:51;1.77;;;1.63;;
72864;SDS011;61000;48.120;11.548;2023-03-24T14:53:19;1.80;;;1.42;;
72864;SDS011;61000;48.120;11.548;2023-03-24T14:55:49;1.52;;;1.27;;
72864;SDS011;61000;48.120;11.548;2023-03-24T14:58:19;1.30;;;1.20;;
72864;SDS011;61000;48.120;11.548;2023-03-24T15:00:49;1.52;;;1.30;;
72864;SDS011;61000;48.120;11.548;2023-03-24T15:03:21;3.97;;;1.48;;
72864;SDS011;61000;48.120;11.548;2023-03-24T15:06:02;1.77;;;1.50;;
72864;SDS011;61000;48.120;11.548;2023-03-24T15:08:42;1.70;;;1.13;;
72864;SDS011;61000;48.120;11.548;2023-03-24T15:11:13;1.35;;;1.20;;
72864;SDS011;61000;48.120;11.548;2023-03-24T15:13:44;1.52;;;1.40;;
72864;SDS011;61000;48.120;11.548;2023-03-24T15:16:19;1.20;;;1.20;;
72864;SDS011;61000;48.120;11.548;2023-03-24T15:18:49;1.42;;;1.33;;
72864;SDS011;61000;48.120;11.548;2023-03-24T15:21:21;1.95;;;1.30;;
72864;SDS011;61000;48.120;11.548;2023-03-24T15:23:50;1.35;;;1.25;;
72864;SDS011;61000;48.120;11.548;2023-03-24T15:26:20;1.40;;;1.30;;
72864;SDS011;61000;48.120;11.548;2023-03-24T15:28:55;1.73;;;1.63;;
72864;SDS011;61000;48.120;11.548;2023-03-24T15:31:23;1.50;;;1.40;;
72864;SDS011;61000;48.120;11.548;2023-03-24T15:34:01;2.17;;;1.70;;
72864;SDS011;61000;48.120;11.548;2023-03-24T15:36:33;1.20;;;1.10;;
72864;SDS011;61000;48.120;11.548;2023-03-24T15:39:14;1.65;;;1.52;;